createdAt,value
2018-11-05T00:00:50.346Z,1006.90
2018-11-05T00:01:50.370Z,1006.96
2018-11-05T00:02:50.360Z,1006.95
2018-11-05T00:03:50.362Z,1006.95
2018-11-05T00:04:50.345Z,1006.99
2018-11-05T00:05:50.379Z,1006.99
2018-11-05T00:06:50.352Z,1006.98
2018-11-05T00:07:50.348Z,1006.93
2018-11-05T00:08:50.343Z,1006.93
2018-11-05T00:09:50.389Z,1006.93
2018-11-05T00:10:50.348Z,1006.90
2018-11-05T00:11:50.362Z,1006.91
2018-11-05T00:12:50.346Z,1006.87
2018-11-05T00:13:50.372Z,1006.88
2018-11-05T00:14:50.359Z,1006.83
2018-11-05T00:15:50.363Z,1006.81
2018-11-05T00:16:50.354Z,1006.76
2018-11-05T00:17:50.351Z,1006.74
2018-11-05T00:18:50.353Z,1006.73
2018-11-05T00:19:50.339Z,1006.68
2018-11-05T00:20:50.342Z,1006.70
2018-11-05T00:21:50.349Z,1006.64
2018-11-05T00:22:50.346Z,1006.64
2018-11-05T00:23:50.348Z,1006.61
2018-11-05T00:24:50.353Z,1006.60
2018-11-05T00:25:50.357Z,1006.55
2018-11-05T00:26:50.348Z,1006.57
2018-11-05T00:27:50.339Z,1006.57
2018-11-05T00:28:50.332Z,1006.55
2018-11-05T00:29:50.332Z,1006.55
2018-11-05T00:30:50.348Z,1006.55
2018-11-05T00:31:50.342Z,1006.55
2018-11-05T00:32:50.346Z,1006.54
2018-11-05T00:33:50.349Z,1006.59
2018-11-05T00:34:50.370Z,1006.60
2018-11-05T00:35:50.366Z,1006.52
2018-11-05T00:36:50.330Z,1006.51
2018-11-05T00:37:50.350Z,1006.50
2018-11-05T00:38:50.334Z,1006.49
2018-11-05T00:39:50.337Z,1006.50
2018-11-05T00:40:50.342Z,1006.46
2018-11-05T00:41:50.348Z,1006.44
2018-11-05T00:42:50.336Z,1006.51
2018-11-05T00:43:50.327Z,1006.50
2018-11-05T00:44:50.334Z,1006.46
2018-11-05T00:45:50.436Z,1006.43
2018-11-05T00:46:50.330Z,1006.42
2018-11-05T00:47:50.347Z,1006.41
2018-11-05T00:48:50.351Z,1006.41
2018-11-05T00:49:50.326Z,1006.38
2018-11-05T00:50:50.339Z,1006.37
2018-11-05T00:51:50.338Z,1006.32
2018-11-05T00:52:50.318Z,1006.30
2018-11-05T00:53:50.330Z,1006.34
2018-11-05T00:54:50.326Z,1006.34
2018-11-05T00:55:50.329Z,1006.33
2018-11-05T00:56:50.330Z,1006.40
2018-11-05T00:57:50.328Z,1006.35
2018-11-05T00:58:50.342Z,1006.34
2018-11-05T00:59:50.361Z,1006.35
2018-11-05T01:00:50.334Z,1006.28
2018-11-05T01:01:50.333Z,1006.27
2018-11-05T01:02:50.347Z,1006.22
2018-11-05T01:03:50.316Z,1006.22
2018-11-05T01:04:50.360Z,1006.20
2018-11-05T01:05:50.336Z,1006.26
2018-11-05T01:06:50.310Z,1006.20
2018-11-05T01:07:50.369Z,1006.17
2018-11-05T01:08:50.327Z,1006.10
2018-11-05T01:09:50.318Z,1006.11
2018-11-05T01:10:50.316Z,1006.09
2018-11-05T01:11:50.324Z,1006.10
2018-11-05T01:12:50.322Z,1006.12
2018-11-05T01:13:50.311Z,1006.11
2018-11-05T01:14:50.309Z,1006.14
2018-11-05T01:15:50.312Z,1006.11
2018-11-05T01:16:50.318Z,1006.08
2018-11-05T01:17:50.310Z,1006.07
2018-11-05T01:18:50.332Z,1006.08
2018-11-05T01:19:50.303Z,1006.09
2018-11-05T01:20:50.305Z,1006.09
2018-11-05T01:21:50.304Z,1006.10
2018-11-05T01:22:50.309Z,1006.11
2018-11-05T01:23:50.311Z,1006.09
2018-11-05T01:24:50.310Z,1006.09
2018-11-05T01:25:50.298Z,1006.09
2018-11-05T01:26:50.300Z,1006.03
2018-11-05T01:27:50.311Z,1006.04
2018-11-05T01:28:50.312Z,1006.02
2018-11-05T01:29:50.303Z,1006.05
2018-11-05T01:30:50.315Z,1006.01
2018-11-05T01:31:50.320Z,1006.00
2018-11-05T01:32:50.334Z,1005.95
2018-11-05T01:33:50.338Z,1005.97
2018-11-05T01:34:50.303Z,1005.94
2018-11-05T01:35:50.350Z,1005.92
2018-11-05T01:36:50.307Z,1005.93
2018-11-05T01:37:50.309Z,1005.93
2018-11-05T01:38:50.311Z,1005.92
2018-11-05T01:39:50.297Z,1005.88
2018-11-05T01:40:50.302Z,1005.90
2018-11-05T01:41:50.300Z,1005.92
2018-11-05T01:42:50.289Z,1005.91
2018-11-05T01:43:50.299Z,1005.89
2018-11-05T01:44:50.306Z,1005.87
2018-11-05T01:45:50.303Z,1005.85
2018-11-05T01:46:50.291Z,1005.80
2018-11-05T01:47:50.286Z,1005.78
2018-11-05T01:48:50.289Z,1005.77
2018-11-05T01:49:50.287Z,1005.75
2018-11-05T01:50:50.282Z,1005.75
2018-11-05T01:51:50.283Z,1005.73
2018-11-05T01:52:50.305Z,1005.73
2018-11-05T01:53:50.278Z,1005.76
2018-11-05T01:54:50.299Z,1005.73
2018-11-05T01:55:50.311Z,1005.72
2018-11-05T01:56:50.299Z,1005.67
2018-11-05T01:57:50.289Z,1005.64
2018-11-05T01:58:50.304Z,1005.59
2018-11-05T01:59:52.902Z,1005.56
2018-11-05T02:00:50.281Z,1005.54
2018-11-05T02:01:50.284Z,1005.55
2018-11-05T02:02:50.289Z,1005.59
2018-11-05T02:03:50.282Z,1005.60
2018-11-05T02:04:50.307Z,1005.62
2018-11-05T02:05:50.291Z,1005.61
2018-11-05T02:06:50.271Z,1005.59
2018-11-05T02:07:50.276Z,1005.60
2018-11-05T02:08:50.293Z,1005.63
2018-11-05T02:09:50.287Z,1005.59
2018-11-05T02:10:50.287Z,1005.66
2018-11-05T02:11:50.292Z,1005.64
2018-11-05T02:12:50.295Z,1005.65
2018-11-05T02:13:50.275Z,1005.67
2018-11-05T02:14:50.287Z,1005.64
2018-11-05T02:15:50.317Z,1005.62
2018-11-05T02:16:50.273Z,1005.59
2018-11-05T02:17:50.272Z,1005.54
2018-11-05T02:18:50.294Z,1005.61
2018-11-05T02:19:50.269Z,1005.62
2018-11-05T02:20:50.279Z,1005.59
2018-11-05T02:21:50.288Z,1005.60
2018-11-05T02:22:50.266Z,1005.61
2018-11-05T02:23:50.264Z,1005.57
2018-11-05T02:24:50.260Z,1005.54
2018-11-05T02:25:50.267Z,1005.53
2018-11-05T02:26:50.267Z,1005.53
2018-11-05T02:27:50.269Z,1005.51
2018-11-05T02:28:50.273Z,1005.52
2018-11-05T02:29:50.264Z,1005.50
2018-11-05T02:30:50.279Z,1005.48
2018-11-05T02:31:50.264Z,1005.45
2018-11-05T02:32:50.256Z,1005.48
2018-11-05T02:33:50.270Z,1005.52
2018-11-05T02:34:50.252Z,1005.50
2018-11-05T02:35:50.271Z,1005.54
2018-11-05T02:36:50.259Z,1005.55
2018-11-05T02:37:50.260Z,1005.50
2018-11-05T02:38:50.307Z,1005.54
2018-11-05T02:39:50.268Z,1005.51
2018-11-05T02:40:50.257Z,1005.48
2018-11-05T02:41:50.263Z,1005.50
2018-11-05T02:42:50.285Z,1005.47
2018-11-05T02:43:50.274Z,1005.40
2018-11-05T02:44:50.252Z,1005.42
2018-11-05T02:45:50.262Z,1005.39
2018-11-05T02:46:50.250Z,1005.36
2018-11-05T02:47:50.269Z,1005.39
2018-11-05T02:48:50.251Z,1005.37
2018-11-05T02:49:50.253Z,1005.39
2018-11-05T02:50:50.257Z,1005.36
2018-11-05T02:51:50.244Z,1005.34
2018-11-05T02:52:50.247Z,1005.28
2018-11-05T02:53:50.263Z,1005.24
2018-11-05T02:54:50.243Z,1005.25
2018-11-05T02:55:50.254Z,1005.21
2018-11-05T02:56:50.248Z,1005.20
2018-11-05T02:57:50.261Z,1005.14
2018-11-05T02:58:50.249Z,1005.13
2018-11-05T02:59:50.273Z,1005.09
2018-11-05T03:00:50.237Z,1005.16
2018-11-05T03:01:50.263Z,1005.13
2018-11-05T03:02:50.253Z,1005.14
2018-11-05T03:03:50.243Z,1005.17
2018-11-05T03:04:50.246Z,1005.20
2018-11-05T03:05:50.257Z,1005.20
2018-11-05T03:06:50.260Z,1005.15
2018-11-05T03:07:50.258Z,1005.15
2018-11-05T03:08:50.252Z,1005.13
2018-11-05T03:09:50.234Z,1005.13
2018-11-05T03:10:50.238Z,1005.14
2018-11-05T03:11:50.233Z,1005.11
2018-11-05T03:12:50.241Z,1005.12
2018-11-05T03:13:50.234Z,1005.11
2018-11-05T03:14:50.246Z,1005.11
2018-11-05T03:15:50.252Z,1005.09
2018-11-05T03:16:50.241Z,1005.05
2018-11-05T03:17:50.229Z,1005.05
2018-11-05T03:18:50.237Z,1005.06
2018-11-05T03:19:50.248Z,1005.05
2018-11-05T03:20:50.247Z,1005.00
2018-11-05T03:21:50.235Z,1005.06
2018-11-05T03:22:50.240Z,1005.03
2018-11-05T03:23:50.238Z,1005.07
2018-11-05T03:24:50.234Z,1005.10
2018-11-05T03:25:50.256Z,1005.07
2018-11-05T03:26:50.242Z,1005.09
2018-11-05T03:27:50.223Z,1005.09
2018-11-05T03:28:50.217Z,1005.14
2018-11-05T03:29:50.229Z,1005.14
2018-11-05T03:30:50.236Z,1005.21
2018-11-05T03:31:50.226Z,1005.19
2018-11-05T03:32:50.218Z,1005.20
2018-11-05T03:33:50.235Z,1005.17
2018-11-05T03:34:50.215Z,1005.21
2018-11-05T03:35:50.304Z,1005.22
2018-11-05T03:36:50.224Z,1005.23
2018-11-05T03:37:50.223Z,1005.26
2018-11-05T03:38:50.207Z,1005.29
2018-11-05T03:39:50.213Z,1005.29
2018-11-05T03:40:50.245Z,1005.35
2018-11-05T03:41:50.221Z,1005.34
2018-11-05T03:42:50.244Z,1005.33
2018-11-05T03:43:50.224Z,1005.31
2018-11-05T03:44:50.225Z,1005.27
2018-11-05T03:45:50.208Z,1005.25
2018-11-05T03:46:50.222Z,1005.27
2018-11-05T03:47:50.205Z,1005.23
2018-11-05T03:48:50.211Z,1005.23
2018-11-05T03:49:50.223Z,1005.21
2018-11-05T03:50:50.213Z,1005.20
2018-11-05T03:51:50.224Z,1005.18
2018-11-05T03:52:50.205Z,1005.19
2018-11-05T03:53:50.219Z,1005.15
2018-11-05T03:54:50.224Z,1005.20
2018-11-05T03:55:50.204Z,1005.22
2018-11-05T03:56:50.316Z,1005.19
2018-11-05T03:57:50.220Z,1005.16
2018-11-05T03:58:50.209Z,1005.16
2018-11-05T03:59:50.212Z,1005.16
2018-11-05T04:00:50.205Z,1005.12
2018-11-05T04:01:50.193Z,1005.16
2018-11-05T04:02:50.196Z,1005.12
2018-11-05T04:03:50.201Z,1005.09
2018-11-05T04:04:50.207Z,1005.12
2018-11-05T04:05:50.214Z,1005.11
2018-11-05T04:06:50.208Z,1005.10
2018-11-05T04:07:50.209Z,1005.07
2018-11-05T04:08:50.195Z,1005.02
2018-11-05T04:09:50.204Z,1005.01
2018-11-05T04:10:50.207Z,1005.03
2018-11-05T04:11:50.192Z,1005.01
2018-11-05T04:12:50.193Z,1005.01
2018-11-05T04:13:50.185Z,1004.96
2018-11-05T04:14:50.196Z,1004.95
2018-11-05T04:15:50.223Z,1004.95
2018-11-05T04:16:50.190Z,1004.88
2018-11-05T04:17:50.190Z,1004.93
2018-11-05T04:18:50.193Z,1004.89
2018-11-05T04:19:50.228Z,1004.88
2018-11-05T04:20:50.192Z,1004.86
2018-11-05T04:21:50.212Z,1004.87
2018-11-05T04:22:50.222Z,1004.83
2018-11-05T04:23:50.192Z,1004.87
2018-11-05T04:24:50.178Z,1004.86
2018-11-05T04:25:50.187Z,1004.84
2018-11-05T04:26:50.174Z,1004.83
2018-11-05T04:27:50.236Z,1004.79
2018-11-05T04:28:50.194Z,1004.77
2018-11-05T04:29:50.175Z,1004.77
2018-11-05T04:30:50.183Z,1004.78
2018-11-05T04:31:50.178Z,1004.71
2018-11-05T04:32:50.209Z,1004.73
2018-11-05T04:33:50.187Z,1004.72
2018-11-05T04:34:50.187Z,1004.72
2018-11-05T04:35:50.181Z,1004.73
2018-11-05T04:36:50.186Z,1004.69
2018-11-05T04:37:50.210Z,1004.70
2018-11-05T04:38:50.165Z,1004.67
2018-11-05T04:39:50.181Z,1004.62
2018-11-05T04:40:50.169Z,1004.62
2018-11-05T04:41:50.174Z,1004.63
2018-11-05T04:42:50.173Z,1004.62
2018-11-05T04:43:50.185Z,1004.63
2018-11-05T04:44:50.175Z,1004.65
2018-11-05T04:45:50.182Z,1004.69
2018-11-05T04:46:50.167Z,1004.71
2018-11-05T04:47:51.946Z,1004.68
2018-11-05T04:48:50.184Z,1004.69
2018-11-05T04:49:50.180Z,1004.64
2018-11-05T04:50:50.182Z,1004.64
2018-11-05T04:51:50.168Z,1004.64
2018-11-05T04:52:50.160Z,1004.64
2018-11-05T04:53:50.159Z,1004.63
2018-11-05T04:54:50.161Z,1004.60
2018-11-05T04:55:50.175Z,1004.58
2018-11-05T04:56:50.156Z,1004.62
2018-11-05T04:57:50.172Z,1004.57
2018-11-05T04:58:52.925Z,1004.63
2018-11-05T04:59:50.163Z,1004.60
2018-11-05T05:00:50.169Z,1004.61
2018-11-05T05:01:50.168Z,1004.61
2018-11-05T05:02:50.175Z,1004.60
2018-11-05T05:03:50.185Z,1004.63
2018-11-05T05:04:50.173Z,1004.63
2018-11-05T05:05:50.173Z,1004.61
2018-11-05T05:06:50.156Z,1004.69
2018-11-05T05:07:50.147Z,1004.69
2018-11-05T05:08:50.160Z,1004.67
2018-11-05T05:09:50.152Z,1004.66
2018-11-05T05:10:50.160Z,1004.66
2018-11-05T05:11:50.155Z,1004.69
2018-11-05T05:12:50.159Z,1004.67
2018-11-05T05:13:50.167Z,1004.64
2018-11-05T05:14:50.149Z,1004.62
2018-11-05T05:15:50.162Z,1004.63
2018-11-05T05:16:50.171Z,1004.67
2018-11-05T05:17:50.146Z,1004.65
2018-11-05T05:18:50.160Z,1004.64
2018-11-05T05:19:50.188Z,1004.64
2018-11-05T05:20:50.165Z,1004.62
2018-11-05T05:21:50.142Z,1004.66
2018-11-05T05:22:50.314Z,1004.69
2018-11-05T05:23:50.152Z,1004.68
2018-11-05T05:24:50.137Z,1004.72
2018-11-05T05:25:50.127Z,1004.74
2018-11-05T05:26:50.149Z,1004.75
2018-11-05T05:27:50.139Z,1004.79
2018-11-05T05:28:50.157Z,1004.80
2018-11-05T05:29:50.138Z,1004.78
2018-11-05T05:30:50.132Z,1004.81
2018-11-05T05:31:50.133Z,1004.83
2018-11-05T05:32:50.138Z,1004.82
2018-11-05T05:33:50.144Z,1004.85
2018-11-05T05:34:50.873Z,1004.83
2018-11-05T05:35:50.124Z,1004.84
2018-11-05T05:36:50.148Z,1004.86
2018-11-05T05:37:50.127Z,1004.84
2018-11-05T05:38:50.126Z,1004.83
2018-11-05T05:39:50.139Z,1004.77
2018-11-05T05:40:50.161Z,1004.75
2018-11-05T05:41:50.125Z,1004.77
2018-11-05T05:42:50.123Z,1004.76
2018-11-05T05:43:50.138Z,1004.76
2018-11-05T05:44:50.128Z,1004.76
2018-11-05T05:45:50.137Z,1004.76
2018-11-05T05:46:50.130Z,1004.78
2018-11-05T05:47:50.119Z,1004.81
2018-11-05T05:48:50.111Z,1004.83
2018-11-05T05:49:50.114Z,1004.77
2018-11-05T05:50:50.123Z,1004.78
2018-11-05T05:51:50.126Z,1004.76
2018-11-05T05:52:50.124Z,1004.79
2018-11-05T05:53:50.128Z,1004.79
2018-11-05T05:54:50.103Z,1004.77
2018-11-05T05:55:50.130Z,1004.78
2018-11-05T05:56:50.118Z,1004.77
2018-11-05T05:57:50.105Z,1004.77
2018-11-05T05:58:50.113Z,1004.80
2018-11-05T05:59:50.152Z,1004.81
2018-11-05T06:00:50.109Z,1004.83
2018-11-05T06:01:50.114Z,1004.82
2018-11-05T06:02:50.138Z,1004.82
2018-11-05T06:03:50.106Z,1004.83
2018-11-05T06:04:50.112Z,1004.85
2018-11-05T06:05:50.159Z,1004.85
2018-11-05T06:06:50.129Z,1004.86
2018-11-05T06:07:50.115Z,1004.85
2018-11-05T06:08:50.118Z,1004.86
2018-11-05T06:09:50.157Z,1004.85
2018-11-05T06:10:50.119Z,1004.90
2018-11-05T06:11:50.118Z,1004.88
2018-11-05T06:12:50.112Z,1004.86
2018-11-05T06:13:50.104Z,1004.85
2018-11-05T06:14:50.095Z,1004.89
2018-11-05T06:15:50.107Z,1004.91
2018-11-05T06:16:50.124Z,1004.96
2018-11-05T06:17:50.093Z,1004.91
2018-11-05T06:18:50.095Z,1005.02
2018-11-05T06:19:50.105Z,1005.02
2018-11-05T06:20:50.123Z,1005.03
2018-11-05T06:21:50.158Z,1005.00
2018-11-05T06:22:50.100Z,1004.98
2018-11-05T06:23:50.118Z,1004.97
2018-11-05T06:24:50.095Z,1004.97
2018-11-05T06:25:50.096Z,1004.97
2018-11-05T06:26:50.105Z,1004.99
2018-11-05T06:27:50.115Z,1004.97
2018-11-05T06:28:50.107Z,1005.00
2018-11-05T06:29:50.113Z,1005.01
2018-11-05T06:30:50.085Z,1005.03
2018-11-05T06:31:50.100Z,1005.01
2018-11-05T06:32:50.110Z,1004.99
2018-11-05T06:33:50.084Z,1004.96
2018-11-05T06:34:50.088Z,1004.95
2018-11-05T06:35:50.109Z,1004.93
2018-11-05T06:36:50.098Z,1004.90
2018-11-05T06:37:50.097Z,1004.91
2018-11-05T06:38:50.082Z,1004.93
2018-11-05T06:39:50.088Z,1004.93
2018-11-05T06:40:50.100Z,1004.91
2018-11-05T06:41:50.312Z,1004.90
2018-11-05T06:42:50.076Z,1004.92
2018-11-05T06:43:50.083Z,1004.91
2018-11-05T06:44:50.103Z,1004.90
2018-11-05T06:45:50.110Z,1004.89
2018-11-05T06:46:50.091Z,1004.90
2018-11-05T06:47:50.084Z,1004.90
2018-11-05T06:48:50.155Z,1004.86
2018-11-05T06:49:50.090Z,1004.82
2018-11-05T06:50:50.086Z,1004.90
2018-11-05T06:51:50.079Z,1004.84
2018-11-05T06:52:50.173Z,1004.87
2018-11-05T06:53:50.098Z,1004.79
2018-11-05T06:54:50.085Z,1004.82
2018-11-05T06:55:50.085Z,1004.83
2018-11-05T06:56:50.091Z,1004.79
2018-11-05T06:57:50.202Z,1004.76
2018-11-05T06:58:50.076Z,1004.72
2018-11-05T06:59:50.082Z,1004.70
2018-11-05T07:00:50.070Z,1004.70
2018-11-05T07:01:50.079Z,1004.70
2018-11-05T07:02:50.086Z,1004.72
2018-11-05T07:03:50.085Z,1004.71
2018-11-05T07:04:50.070Z,1004.75
2018-11-05T07:05:50.158Z,1004.73
2018-11-05T07:06:50.081Z,1004.74
2018-11-05T07:07:50.070Z,1004.70
2018-11-05T07:08:50.087Z,1004.70
2018-11-05T07:09:50.108Z,1004.69
2018-11-05T07:10:50.133Z,1004.72
2018-11-05T07:11:50.110Z,1004.74
2018-11-05T07:12:50.102Z,1004.78
2018-11-05T07:13:50.072Z,1004.77
2018-11-05T07:14:50.075Z,1004.78
2018-11-05T07:15:50.075Z,1004.82
2018-11-05T07:16:50.079Z,1004.80
2018-11-05T07:17:50.067Z,1004.86
2018-11-05T07:18:50.156Z,1004.87
2018-11-05T07:19:50.070Z,1004.83
2018-11-05T07:20:50.077Z,1004.85
2018-11-05T07:21:50.077Z,1004.83
2018-11-05T07:22:50.106Z,1004.81
2018-11-05T07:23:50.081Z,1004.81
2018-11-05T07:24:50.082Z,1004.84
2018-11-05T07:25:50.120Z,1004.85
2018-11-05T07:26:50.199Z,1004.89
2018-11-05T07:27:50.180Z,1004.94
2018-11-05T07:28:50.072Z,1004.90
2018-11-05T07:29:50.075Z,1004.95
2018-11-05T07:30:50.387Z,1004.94
2018-11-05T07:31:50.081Z,1004.93
2018-11-05T07:32:50.076Z,1004.95
2018-11-05T07:33:50.192Z,1004.92
2018-11-05T07:34:50.062Z,1004.93
2018-11-05T07:35:50.078Z,1004.91
2018-11-05T07:36:50.066Z,1004.91
2018-11-05T07:37:50.068Z,1004.90
2018-11-05T07:38:50.148Z,1004.97
2018-11-05T07:39:50.074Z,1004.99
2018-11-05T07:40:50.077Z,1004.99
2018-11-05T07:41:50.082Z,1005.03
2018-11-05T07:42:50.090Z,1005.09
2018-11-05T07:43:50.096Z,1005.11
2018-11-05T07:44:50.090Z,1005.11
2018-11-05T07:45:50.062Z,1005.13
2018-11-05T07:46:50.063Z,1005.11
2018-11-05T07:47:50.080Z,1005.13
2018-11-05T07:48:50.073Z,1005.17
2018-11-05T07:49:50.065Z,1005.21
2018-11-05T07:50:50.159Z,1005.20
2018-11-05T07:51:50.070Z,1005.20
2018-11-05T07:52:50.082Z,1005.24
2018-11-05T07:53:50.090Z,1005.23
2018-11-05T07:54:50.073Z,1005.25
2018-11-05T07:55:50.075Z,1005.24
2018-11-05T07:56:50.073Z,1005.24
2018-11-05T07:57:50.073Z,1005.22
2018-11-05T07:58:50.083Z,1005.14
2018-11-05T07:59:50.057Z,1005.17
2018-11-05T08:00:50.065Z,1005.12
2018-11-05T08:01:50.061Z,1005.15
2018-11-05T08:02:50.149Z,1005.13
2018-11-05T08:03:50.089Z,1005.14
2018-11-05T08:04:50.077Z,1005.14
2018-11-05T08:05:50.066Z,1005.15
2018-11-05T08:06:50.067Z,1005.10
2018-11-05T08:07:50.079Z,1005.16
2018-11-05T08:08:50.091Z,1005.16
2018-11-05T08:09:50.104Z,1005.15
2018-11-05T08:10:50.080Z,1005.14
2018-11-05T08:11:50.080Z,1005.12
2018-11-05T08:12:50.092Z,1005.11
2018-11-05T08:13:50.082Z,1005.06
2018-11-05T08:14:50.064Z,1005.08
2018-11-05T08:15:50.055Z,1005.03
2018-11-05T08:16:50.076Z,1005.05
2018-11-05T08:17:50.107Z,1005.08
2018-11-05T08:18:50.072Z,1005.08
2018-11-05T08:19:50.097Z,1005.10
2018-11-05T08:20:50.090Z,1005.02
2018-11-05T08:21:50.081Z,1004.99
2018-11-05T08:22:50.090Z,1005.00
2018-11-05T08:23:50.074Z,1004.95
2018-11-05T08:24:50.059Z,1004.96
2018-11-05T08:25:50.119Z,1004.93
2018-11-05T08:26:50.077Z,1005.00
2018-11-05T08:27:50.063Z,1004.99
2018-11-05T08:28:50.099Z,1004.97
2018-11-05T08:29:50.124Z,1004.93
2018-11-05T08:30:50.063Z,1004.91
2018-11-05T08:31:50.065Z,1004.95
2018-11-05T08:32:50.072Z,1004.98
2018-11-05T08:33:50.061Z,1004.96
2018-11-05T08:34:50.072Z,1004.91
2018-11-05T08:35:50.071Z,1004.93
2018-11-05T08:36:50.074Z,1004.90
2018-11-05T08:37:50.055Z,1004.86
2018-11-05T08:38:50.056Z,1004.81
2018-11-05T08:39:50.072Z,1004.79
2018-11-05T08:40:50.074Z,1004.80
2018-11-05T08:41:50.060Z,1004.81
2018-11-05T08:42:50.096Z,1004.84
2018-11-05T08:43:50.073Z,1004.81
2018-11-05T08:44:50.092Z,1004.84
2018-11-05T08:45:50.075Z,1004.81
2018-11-05T08:46:50.100Z,1004.76
2018-11-05T08:47:50.062Z,1004.75
2018-11-05T08:48:50.074Z,1004.76
2018-11-05T08:49:50.066Z,1004.75
2018-11-05T08:50:50.152Z,1004.76
2018-11-05T08:51:50.138Z,1004.76
2018-11-05T08:52:50.072Z,1004.75
2018-11-05T08:53:50.134Z,1004.78
2018-11-05T08:54:50.085Z,1004.73
2018-11-05T08:55:50.080Z,1004.69
2018-11-05T08:56:50.065Z,1004.67
2018-11-05T08:57:50.150Z,1004.71
2018-11-05T08:58:50.087Z,1004.71
2018-11-05T08:59:50.083Z,1004.71
2018-11-05T09:00:50.158Z,1004.71
2018-11-05T09:01:50.091Z,1004.70
2018-11-05T09:02:50.074Z,1004.67
2018-11-05T09:03:50.068Z,1004.60
2018-11-05T09:04:50.220Z,1004.57
2018-11-05T09:05:50.084Z,1004.59
2018-11-05T09:06:50.072Z,1004.57
2018-11-05T09:07:50.073Z,1004.54
2018-11-05T09:08:50.150Z,1004.50
2018-11-05T09:09:50.118Z,1004.49
2018-11-05T09:10:50.483Z,1004.51
2018-11-05T09:11:50.082Z,1004.54
2018-11-05T09:12:50.085Z,1004.51
2018-11-05T09:13:50.083Z,1004.54
2018-11-05T09:14:50.099Z,1004.47
2018-11-05T09:15:50.109Z,1004.48
2018-11-05T09:16:50.094Z,1004.45
2018-11-05T09:17:50.098Z,1004.45
2018-11-05T09:18:50.097Z,1004.48
2018-11-05T09:19:50.107Z,1004.41
2018-11-05T09:20:50.168Z,1004.43
2018-11-05T09:21:50.081Z,1004.38
2018-11-05T09:22:50.118Z,1004.28
2018-11-05T09:23:50.090Z,1004.26
2018-11-05T09:24:50.100Z,1004.29
2018-11-05T09:25:50.104Z,1004.33
2018-11-05T09:26:50.092Z,1004.26
2018-11-05T09:27:50.128Z,1004.22
2018-11-05T09:28:50.131Z,1004.27
2018-11-05T09:29:50.098Z,1004.18
2018-11-05T09:30:50.106Z,1004.23
2018-11-05T09:31:50.120Z,1004.20
2018-11-05T09:32:50.115Z,1004.19
2018-11-05T09:33:50.102Z,1004.18
2018-11-05T09:34:50.110Z,1004.21
2018-11-05T09:35:50.105Z,1004.26
2018-11-05T09:36:50.131Z,1004.28
2018-11-05T09:37:50.125Z,1004.27
2018-11-05T09:38:50.091Z,1004.27
2018-11-05T09:39:50.121Z,1004.25
2018-11-05T09:40:50.092Z,1004.31
2018-11-05T09:41:50.090Z,1004.35
2018-11-05T09:42:50.196Z,1004.37
2018-11-05T09:43:50.102Z,1004.42
2018-11-05T09:44:50.105Z,1004.39
2018-11-05T09:45:50.112Z,1004.40
2018-11-05T09:46:50.132Z,1004.40
2018-11-05T09:47:50.102Z,1004.40
2018-11-05T09:48:50.113Z,1004.31
2018-11-05T09:49:50.104Z,1004.28
2018-11-05T09:50:50.180Z,1004.26
2018-11-05T09:51:50.133Z,1004.22
2018-11-05T09:52:50.112Z,1004.28
2018-11-05T09:53:50.115Z,1004.31
2018-11-05T09:54:50.147Z,1004.35
2018-11-05T09:55:50.126Z,1004.33
2018-11-05T09:56:52.012Z,1004.37
2018-11-05T09:57:50.110Z,1004.36
2018-11-05T09:58:50.202Z,1004.34
2018-11-05T09:59:50.201Z,1004.38
2018-11-05T10:00:50.307Z,1004.38
2018-11-05T10:01:50.970Z,1004.43
2018-11-05T10:02:50.251Z,1004.34
2018-11-05T10:03:50.156Z,1004.40
2018-11-05T10:04:50.487Z,1004.31
2018-11-05T10:05:50.112Z,1004.36
2018-11-05T10:06:50.117Z,1004.46
2018-11-05T10:07:50.124Z,1004.43
2018-11-05T10:08:50.122Z,1004.40
2018-11-05T10:09:50.227Z,1004.39
2018-11-05T10:10:50.139Z,1004.38
2018-11-05T10:11:50.170Z,1004.25
2018-11-05T10:12:50.137Z,1004.37
2018-11-05T10:13:50.119Z,1004.26
2018-11-05T10:14:50.163Z,1004.32
2018-11-05T10:15:50.130Z,1004.33
2018-11-05T10:16:50.151Z,1004.28
2018-11-05T10:17:50.116Z,1004.27
2018-11-05T10:18:50.118Z,1004.26
2018-11-05T10:19:50.139Z,1004.29
2018-11-05T10:20:50.185Z,1004.21
2018-11-05T10:21:50.140Z,1004.17
2018-11-05T10:22:50.139Z,1004.15
2018-11-05T10:23:50.145Z,1004.11
2018-11-05T10:24:50.311Z,1004.08
2018-11-05T10:25:50.143Z,1004.06
2018-11-05T10:26:50.139Z,1004.11
2018-11-05T10:27:50.186Z,1004.10
2018-11-05T10:28:50.220Z,1004.10
2018-11-05T10:29:50.160Z,1004.02
2018-11-05T10:30:50.135Z,1004.09
2018-11-05T10:31:50.139Z,1004.09
2018-11-05T10:32:50.185Z,1004.14
2018-11-05T10:33:50.194Z,1004.09
2018-11-05T10:34:50.129Z,1004.06
2018-11-05T10:35:50.137Z,1004.07
2018-11-05T10:36:50.172Z,1004.05
2018-11-05T10:37:50.184Z,1003.97
2018-11-05T10:38:50.143Z,1004.01
2018-11-05T10:39:50.150Z,1004.05
2018-11-05T10:40:50.153Z,1004.09
2018-11-05T10:41:50.151Z,1004.07
2018-11-05T10:42:50.177Z,1004.13
2018-11-05T10:43:50.144Z,1004.18
2018-11-05T10:44:50.174Z,1004.12
2018-11-05T10:45:50.161Z,1004.01
2018-11-05T10:46:50.150Z,1003.96
2018-11-05T10:47:50.191Z,1003.96
2018-11-05T10:48:50.169Z,1004.02
2018-11-05T10:49:50.176Z,1004.01
2018-11-05T10:50:50.161Z,1004.04
2018-11-05T10:51:50.284Z,1004.07
2018-11-05T10:52:50.149Z,1003.99
2018-11-05T10:53:50.164Z,1003.99
2018-11-05T10:54:50.153Z,1004.02
2018-11-05T10:55:50.174Z,1004.00
2018-11-05T10:56:50.191Z,1003.93
2018-11-05T10:57:50.149Z,1003.96
2018-11-05T10:58:50.160Z,1003.93
2018-11-05T10:59:50.157Z,1003.96
2018-11-05T11:00:50.160Z,1003.98
2018-11-05T11:01:50.189Z,1004.03
2018-11-05T11:02:50.199Z,1004.03
2018-11-05T11:03:50.321Z,1004.04
2018-11-05T11:04:50.187Z,1004.08
2018-11-05T11:05:50.202Z,1004.16
2018-11-05T11:06:50.203Z,1004.17
2018-11-05T11:07:50.171Z,1004.23
2018-11-05T11:08:50.196Z,1004.27
2018-11-05T11:09:50.159Z,1004.22
2018-11-05T11:10:50.172Z,1004.22
2018-11-05T11:11:50.179Z,1004.20
2018-11-05T11:12:50.169Z,1004.20
2018-11-05T11:13:50.180Z,1004.18
2018-11-05T11:14:50.163Z,1004.19
2018-11-05T11:15:50.184Z,1004.17
2018-11-05T11:16:50.166Z,1004.15
2018-11-05T11:17:50.200Z,1004.18
2018-11-05T11:18:50.186Z,1004.15
2018-11-05T11:19:50.194Z,1004.16
2018-11-05T11:20:50.216Z,1004.17
2018-11-05T11:21:50.237Z,1004.11
2018-11-05T11:22:50.185Z,1004.10
2018-11-05T11:23:50.171Z,1004.09
2018-11-05T11:24:50.177Z,1004.12
2018-11-05T11:25:50.209Z,1004.10
2018-11-05T11:26:50.181Z,1004.11
2018-11-05T11:27:50.370Z,1004.03
2018-11-05T11:28:50.319Z,1003.98
2018-11-05T11:29:50.200Z,1003.88
2018-11-05T11:30:50.196Z,1003.93
2018-11-05T11:31:50.185Z,1003.90
2018-11-05T11:32:50.199Z,1003.87
2018-11-05T11:33:50.193Z,1003.90
2018-11-05T11:34:50.242Z,1003.90
2018-11-05T11:35:50.242Z,1003.90
2018-11-05T11:36:50.199Z,1003.92
2018-11-05T11:37:50.204Z,1003.90
2018-11-05T11:38:50.210Z,1003.92
2018-11-05T11:39:50.211Z,1003.92
2018-11-05T11:40:50.230Z,1003.92
2018-11-05T11:41:50.210Z,1003.94
2018-11-05T11:42:50.215Z,1003.94
2018-11-05T11:43:50.210Z,1003.92
2018-11-05T11:44:50.248Z,1003.94
2018-11-05T11:45:50.218Z,1003.89
2018-11-05T11:46:50.218Z,1003.82
2018-11-05T11:47:50.223Z,1003.82
2018-11-05T11:48:50.220Z,1003.80
2018-11-05T11:49:50.206Z,1003.75
2018-11-05T11:50:50.213Z,1003.73
2018-11-05T11:51:50.204Z,1003.69
2018-11-05T11:52:50.369Z,1003.65
2018-11-05T11:53:50.233Z,1003.66
2018-11-05T11:54:50.283Z,1003.67
2018-11-05T11:55:50.226Z,1003.64
2018-11-05T11:56:50.287Z,1003.65
2018-11-05T11:57:50.227Z,1003.67
2018-11-05T11:58:50.217Z,1003.63
2018-11-05T11:59:50.241Z,1003.62
2018-11-05T12:00:50.227Z,1003.60
2018-11-05T12:01:50.221Z,1003.57
2018-11-05T12:02:50.227Z,1003.54
2018-11-05T12:03:50.219Z,1003.54
2018-11-05T12:04:50.320Z,1003.55
2018-11-05T12:05:50.241Z,1003.66